createdAt,value
2022-11-20T00:01:17.838Z,0.39
2022-11-20T00:03:45.541Z,0.33
2022-11-20T00:06:18.253Z,-0.05
2022-11-20T00:08:46.239Z,0.38
2022-11-20T00:11:18.686Z,0.34
2022-11-20T00:13:46.006Z,0.34
2022-11-20T00:16:14.723Z,0.22
2022-11-20T00:18:43.172Z,0.23
2022-11-20T00:21:29.635Z,0.29
2022-11-20T00:23:58.021Z,0.35
2022-11-20T00:26:26.437Z,0.35
2022-11-20T00:28:55.932Z,0.29
2022-11-20T00:31:23.263Z,0.33
2022-11-20T00:33:50.481Z,0.30
2022-11-20T00:36:19.900Z,0.25
2022-11-20T00:38:47.164Z,0.36
2022-11-20T00:41:16.402Z,0.44
2022-11-20T00:43:44.153Z,0.48
2022-11-20T00:46:17.331Z,0.49
2022-11-20T00:48:45.244Z,0.48
2022-11-20T00:51:14.180Z,0.54
2022-11-20T00:53:41.194Z,0.56
2022-11-20T00:56:11.766Z,0.52
2022-11-20T00:58:40.332Z,0.63
2022-11-20T01:01:10.051Z,0.62
2022-11-20T01:03:40.001Z,0.25
2022-11-20T01:06:12.593Z,0.59
2022-11-20T01:08:39.734Z,0.68
2022-11-20T01:11:09.950Z,0.59
2022-11-20T01:13:41.260Z,0.59
2022-11-20T01:16:18.665Z,0.58
2022-11-20T01:18:48.998Z,0.57
2022-11-20T01:21:19.638Z,0.62
2022-11-20T01:23:48.010Z,0.50
2022-11-20T01:26:28.003Z,0.51
2022-11-20T01:28:55.964Z,0.48
2022-11-20T01:31:27.760Z,0.60
2022-11-20T01:33:57.157Z,0.61
2022-11-20T01:36:26.105Z,0.08
2022-11-20T01:38:57.541Z,0.61
2022-11-20T01:41:44.565Z,0.58
2022-11-20T01:44:13.513Z,0.54
2022-11-20T01:47:00.039Z,0.56
2022-11-20T01:49:39.970Z,0.48
2022-11-20T01:52:39.921Z,0.56
2022-11-20T01:55:15.935Z,0.61
2022-11-20T01:57:45.331Z,0.69
2022-11-20T02:00:15.516Z,0.70
2022-11-20T02:02:50.794Z,0.70
2022-11-20T02:05:29.094Z,0.78
2022-11-20T02:07:58.281Z,0.77
2022-11-20T02:10:26.056Z,0.79
2022-11-20T02:13:12.360Z,0.44
2022-11-20T02:15:39.550Z,0.78
2022-11-20T02:18:07.006Z,0.84
2022-11-20T02:20:34.116Z,0.79
2022-11-20T02:23:19.974Z,0.87
2022-11-20T02:25:48.340Z,0.81
2022-11-20T02:28:17.552Z,0.35
2022-11-20T02:30:44.625Z,0.67
2022-11-20T02:33:11.614Z,0.75
2022-11-20T02:35:44.755Z,0.70
2022-11-20T02:38:11.948Z,0.73
2022-11-20T02:40:38.924Z,0.78
2022-11-20T02:43:05.965Z,0.75
2022-11-20T02:45:32.974Z,0.80
2022-11-20T02:47:59.978Z,0.78
2022-11-20T02:50:27.078Z,0.83
2022-11-20T02:52:54.152Z,0.85
2022-11-20T02:55:21.111Z,0.79
2022-11-20T02:57:48.116Z,0.88
2022-11-20T03:00:15.352Z,0.74
2022-11-20T03:02:42.337Z,0.76
2022-11-20T03:05:09.311Z,0.92
2022-11-20T03:07:36.373Z,0.97
2022-11-20T03:10:04.576Z,0.95
2022-11-20T03:12:31.575Z,0.98
2022-11-20T03:14:58.534Z,0.98
2022-11-20T03:17:25.557Z,1.00
2022-11-20T03:19:53.079Z,0.52
2022-11-20T03:22:20.088Z,0.96
2022-11-20T03:24:47.200Z,0.94
2022-11-20T03:27:14.336Z,0.92
2022-11-20T03:29:41.312Z,1.01
2022-11-20T03:32:08.338Z,1.03
2022-11-20T03:34:35.290Z,1.07
2022-11-20T03:37:02.251Z,1.06
2022-11-20T03:39:29.201Z,1.07
2022-11-20T03:41:56.158Z,1.06
2022-11-20T03:44:23.298Z,0.75
2022-11-20T03:46:50.271Z,0.94
2022-11-20T03:49:17.227Z,0.97
2022-11-20T03:51:44.467Z,0.93
2022-11-20T03:54:11.427Z,1.01
2022-11-20T03:56:40.154Z,0.62
2022-11-20T03:59:07.539Z,0.97
2022-11-20T04:01:38.255Z,0.67
2022-11-20T04:04:05.842Z,1.04
2022-11-20T04:06:38.786Z,0.98
2022-11-20T04:09:06.621Z,1.01
2022-11-20T04:11:37.099Z,0.96
2022-11-20T04:14:06.801Z,1.04
2022-11-20T04:16:36.316Z,1.01
2022-11-20T04:19:05.847Z,0.89
2022-11-20T04:21:33.196Z,0.93
2022-11-20T04:24:00.179Z,1.06
2022-11-20T04:26:28.803Z,1.03
2022-11-20T04:28:56.391Z,0.85
2022-11-20T04:31:25.792Z,1.10
2022-11-20T04:33:53.449Z,1.09
2022-11-20T04:36:21.728Z,1.09
2022-11-20T04:38:56.717Z,1.07
2022-11-20T04:41:27.188Z,1.01
2022-11-20T04:44:00.752Z,1.11
2022-11-20T04:46:29.000Z,1.10
2022-11-20T04:48:56.023Z,0.91
2022-11-20T04:51:23.417Z,0.72
2022-11-20T04:53:50.502Z,1.06
2022-11-20T04:56:17.577Z,1.10
2022-11-20T04:58:44.634Z,1.12
2022-11-20T05:01:20.550Z,1.08
2022-11-20T05:03:48.305Z,1.09
2022-11-20T05:06:17.552Z,1.11
2022-11-20T05:08:44.607Z,1.02
2022-11-20T05:11:17.142Z,1.03
2022-11-20T05:13:44.525Z,1.05
2022-11-20T05:16:14.343Z,1.05
2022-11-20T05:18:42.429Z,1.08
2022-11-20T05:21:10.952Z,1.05
2022-11-20T05:23:38.287Z,1.11
2022-11-20T05:26:07.817Z,1.12
2022-11-20T05:28:35.589Z,1.21
2022-11-20T05:31:10.928Z,1.21
2022-11-20T05:33:40.369Z,1.17
2022-11-20T05:36:08.073Z,1.13
2022-11-20T05:38:35.114Z,1.10
2022-11-20T05:41:16.185Z,1.15
2022-11-20T05:43:45.111Z,1.17
2022-11-20T05:46:13.992Z,1.12
2022-11-20T05:48:42.608Z,1.11
2022-11-20T05:51:12.001Z,1.10
2022-11-20T05:53:42.529Z,0.81
2022-11-20T05:56:17.457Z,1.24
2022-11-20T05:58:45.236Z,1.22
2022-11-20T06:01:21.090Z,1.25
2022-11-20T06:03:48.723Z,1.16
2022-11-20T06:06:16.902Z,1.18
2022-11-20T06:08:45.272Z,1.25
2022-11-20T06:11:13.648Z,1.18
2022-11-20T06:13:42.562Z,1.22
2022-11-20T06:16:11.528Z,1.20
2022-11-20T06:18:38.985Z,1.14
2022-11-20T06:21:07.465Z,1.24
2022-11-20T06:23:35.884Z,1.18
2022-11-20T06:26:07.858Z,1.27
2022-11-20T06:28:35.426Z,1.26
2022-11-20T06:31:03.630Z,1.28
2022-11-20T06:33:31.140Z,1.12
2022-11-20T06:36:01.811Z,1.00
2022-11-20T06:38:31.586Z,1.02
2022-11-20T06:40:58.570Z,0.94
2022-11-20T06:43:26.647Z,0.92
2022-11-20T06:45:58.270Z,1.03
2022-11-20T06:48:27.344Z,0.96
2022-11-20T06:50:54.364Z,1.01
2022-11-20T06:53:22.760Z,1.10
2022-11-20T06:55:51.533Z,1.10
2022-11-20T06:58:19.100Z,0.65
2022-11-20T07:00:46.316Z,1.08
2022-11-20T07:03:14.116Z,1.17
2022-11-20T07:05:41.604Z,1.06
2022-11-20T07:08:09.118Z,1.17
2022-11-20T07:10:36.458Z,1.27
2022-11-20T07:13:03.502Z,1.23
2022-11-20T07:15:30.848Z,0.69
2022-11-20T07:18:00.974Z,1.17
2022-11-20T07:20:28.634Z,1.18
2022-11-20T07:22:56.834Z,1.23
2022-11-20T07:25:28.234Z,1.22
2022-11-20T07:27:59.464Z,1.19
2022-11-20T07:30:27.766Z,1.13
2022-11-20T07:32:56.528Z,1.02
2022-11-20T07:35:24.973Z,1.20
2022-11-20T07:37:51.957Z,1.33
2022-11-20T07:40:19.680Z,1.26
2022-11-20T07:42:54.888Z,1.10
2022-11-20T07:45:24.157Z,1.37
2022-11-20T07:47:51.747Z,1.32
2022-11-20T07:50:19.957Z,1.22
2022-11-20T07:52:47.030Z,1.27
2022-11-20T07:55:14.335Z,1.31
2022-11-20T07:57:41.395Z,1.31
2022-11-20T08:00:10.868Z,1.25
2022-11-20T08:02:41.965Z,1.53
2022-11-20T08:05:10.669Z,1.63
2022-11-20T08:07:39.393Z,1.59
2022-11-20T08:10:07.567Z,1.63
2022-11-20T08:12:53.538Z,1.69
2022-11-20T08:15:21.117Z,1.76
2022-11-20T08:18:08.230Z,1.64
2022-11-20T08:20:35.747Z,1.83
2022-11-20T08:23:04.764Z,1.89
2022-11-20T08:25:32.889Z,2.00
2022-11-20T08:28:03.391Z,1.89
2022-11-20T08:30:35.231Z,2.04
2022-11-20T08:33:09.249Z,1.96
2022-11-20T08:35:37.300Z,2.11
2022-11-20T08:38:06.065Z,2.01
2022-11-20T08:40:33.366Z,2.10
2022-11-20T08:43:00.487Z,2.09
2022-11-20T08:45:33.438Z,2.16
2022-11-20T08:48:03.027Z,2.02
2022-11-20T08:50:32.886Z,2.32
2022-11-20T08:53:05.474Z,2.32
2022-11-20T08:55:32.958Z,2.39
2022-11-20T08:58:04.484Z,2.12
2022-11-20T09:00:31.573Z,2.43
2022-11-20T09:02:59.515Z,2.44
2022-11-20T09:05:26.515Z,2.57
2022-11-20T09:07:57.180Z,2.75
2022-11-20T09:10:25.078Z,2.70
2022-11-20T09:12:53.237Z,2.63
2022-11-20T09:15:20.382Z,2.72
2022-11-20T09:17:53.212Z,2.72
2022-11-20T09:20:21.012Z,2.60
2022-11-20T09:22:48.242Z,2.82
2022-11-20T09:25:15.579Z,2.86
2022-11-20T09:27:44.587Z,3.09
2022-11-20T09:30:12.933Z,3.00
2022-11-20T09:32:40.616Z,2.84
2022-11-20T09:35:08.763Z,2.70
2022-11-20T09:37:35.927Z,3.12
2022-11-20T09:40:03.272Z,2.85
2022-11-20T09:43:09.853Z,3.08
2022-11-20T09:45:49.014Z,3.15
2022-11-20T09:48:36.184Z,3.20
2022-11-20T09:51:37.265Z,3.29
2022-11-20T09:54:19.667Z,3.37
2022-11-20T09:56:55.587Z,3.34
2022-11-20T09:59:33.353Z,3.49
2022-11-20T10:02:02.038Z,2.99
2022-11-20T10:04:36.700Z,3.34
2022-11-20T10:07:32.715Z,3.41
2022-11-20T10:10:00.540Z,3.47
2022-11-20T10:12:50.009Z,3.61
2022-11-20T10:15:34.829Z,3.73
2022-11-20T10:18:30.930Z,3.72
2022-11-20T10:21:10.728Z,3.78
2022-11-20T10:24:13.888Z,3.71
2022-11-20T10:26:40.766Z,3.89
2022-11-20T10:29:14.847Z,3.75
2022-11-20T10:31:45.303Z,4.03
2022-11-20T10:34:44.038Z,4.04
2022-11-20T10:37:16.997Z,4.36
2022-11-20T10:40:15.991Z,4.40
2022-11-20T10:42:44.828Z,4.37
2022-11-20T10:45:30.450Z,4.45
2022-11-20T10:48:17.938Z,4.42
2022-11-20T10:51:00.435Z,4.28
2022-11-20T10:53:51.930Z,4.30
2022-11-20T10:56:30.886Z,4.35
2022-11-20T10:59:28.695Z,4.44
2022-11-20T11:01:55.703Z,4.57
2022-11-20T11:04:41.611Z,4.55
2022-11-20T11:07:17.786Z,4.48
2022-11-20T11:09:48.963Z,4.38
2022-11-20T11:12:16.177Z,4.43
2022-11-20T11:14:48.252Z,4.29
2022-11-20T11:17:32.850Z,4.24
2022-11-20T11:20:04.444Z,4.04
2022-11-20T11:22:33.883Z,4.18
2022-11-20T11:25:01.494Z,4.20
2022-11-20T11:27:28.551Z,4.32
2022-11-20T11:30:16.116Z,4.22
2022-11-20T11:32:43.264Z,4.35
2022-11-20T11:35:30.520Z,4.45
2022-11-20T11:38:16.540Z,4.44
2022-11-20T11:40:44.464Z,4.33
2022-11-20T11:43:41.805Z,4.47
2022-11-20T11:46:20.958Z,4.88
2022-11-20T11:49:02.456Z,4.85
2022-11-20T11:52:11.567Z,4.62
2022-11-20T11:54:51.964Z,4.51
2022-11-20T11:58:10.169Z,4.57
2022-11-20T12:00:42.371Z,4.12
2022-11-20T12:03:18.685Z,4.38
2022-11-20T12:05:50.576Z,4.51
2022-11-20T12:08:30.844Z,4.57
2022-11-20T12:11:07.748Z,4.53
2022-11-20T12:13:34.742Z,4.45
2022-11-20T12:16:03.643Z,4.38
2022-11-20T12:18:31.890Z,4.30
2022-11-20T12:21:40.037Z,4.27
2022-11-20T12:24:35.870Z,4.19
2022-11-20T12:27:14.632Z,4.17
2022-11-20T12:29:50.215Z,4.10
2022-11-20T12:32:17.171Z,4.07
2022-11-20T12:35:11.398Z,4.11
2022-11-20T12:37:44.809Z,4.12
2022-11-20T12:40:20.660Z,4.08
2022-11-20T12:43:18.151Z,4.11
2022-11-20T12:45:45.132Z,4.12
2022-11-20T12:48:30.092Z,4.15
2022-11-20T12:51:39.737Z,4.20
2022-11-20T12:54:37.657Z,4.26
2022-11-20T12:57:18.319Z,4.15
2022-11-20T13:00:15.529Z,4.26
2022-11-20T13:02:54.413Z,4.25
2022-11-20T13:05:37.711Z,4.11
2022-11-20T13:08:09.811Z,4.13
2022-11-20T13:10:57.003Z,4.12
2022-11-20T13:13:43.098Z,4.20
2022-11-20T13:16:14.857Z,4.23
2022-11-20T13:18:43.563Z,3.85
2022-11-20T13:21:19.170Z,3.87
2022-11-20T13:23:46.508Z,4.24
2022-11-20T13:26:22.915Z,4.21
2022-11-20T13:29:12.295Z,4.21
2022-11-20T13:31:47.921Z,4.15
2022-11-20T13:34:25.497Z,4.05
2022-11-20T13:36:56.471Z,4.22
2022-11-20T13:39:36.150Z,4.21
2022-11-20T13:42:11.891Z,4.17
2022-11-20T13:44:43.563Z,4.09
2022-11-20T13:47:28.628Z,4.09
2022-11-20T13:50:00.120Z,4.01
2022-11-20T13:53:06.116Z,3.91
2022-11-20T13:55:36.057Z,4.12
2022-11-20T13:58:25.665Z,4.06
2022-11-20T14:00:59.218Z,4.05
2022-11-20T14:04:27.766Z,3.94
2022-11-20T14:06:45.841Z,4.03
2022-11-20T14:09:25.502Z,3.96
2022-11-20T14:11:52.540Z,3.96
2022-11-20T14:14:22.233Z,4.05
2022-11-20T14:16:50.488Z,3.47
2022-11-20T14:19:20.535Z,3.97
2022-11-20T14:21:54.025Z,4.04
2022-11-20T14:24:24.018Z,4.13
2022-11-20T14:26:52.212Z,4.11
2022-11-20T14:29:30.847Z,3.90
2022-11-20T14:31:58.329Z,4.03
2022-11-20T14:34:28.779Z,3.87
2022-11-20T14:37:06.481Z,3.87
2022-11-20T14:39:36.145Z,3.87
2022-11-20T14:42:15.143Z,3.91
2022-11-20T14:44:43.619Z,3.95
2022-11-20T14:47:14.239Z,3.93
2022-11-20T14:49:42.140Z,3.94
2022-11-20T14:52:23.570Z,3.88
2022-11-20T14:54:52.771Z,3.82
2022-11-20T14:57:31.575Z,3.86
2022-11-20T15:00:25.102Z,3.80
2022-11-20T15:02:53.202Z,3.78
2022-11-20T15:05:26.604Z,3.82
2022-11-20T15:08:09.273Z,3.84
2022-11-20T15:10:36.476Z,3.76
2022-11-20T15:13:12.470Z,3.81
2022-11-20T15:15:55.847Z,3.86
2022-11-20T15:18:37.849Z,3.82
2022-11-20T15:21:12.056Z,3.84
2022-11-20T15:23:39.400Z,3.73
2022-11-20T15:26:07.683Z,3.88
2022-11-20T15:28:37.971Z,3.90
2022-11-20T15:31:05.119Z,3.92
2022-11-20T15:33:33.049Z,3.92
2022-11-20T15:36:01.271Z,3.90
2022-11-20T15:38:28.324Z,3.90
2022-11-20T15:40:55.416Z,3.85
2022-11-20T15:43:22.409Z,3.71
2022-11-20T15:45:53.556Z,3.90
2022-11-20T15:48:48.341Z,3.89
2022-11-20T15:51:29.887Z,3.93
2022-11-20T15:53:57.651Z,3.84
2022-11-20T15:56:25.193Z,3.94
2022-11-20T15:58:52.394Z,3.91
2022-11-20T16:01:22.520Z,3.99
2022-11-20T16:03:49.796Z,3.96
2022-11-20T16:06:19.504Z,3.98
2022-11-20T16:08:46.929Z,3.98
2022-11-20T16:11:16.739Z,3.68
2022-11-20T16:14:02.801Z,4.01
2022-11-20T16:16:33.229Z,4.02
2022-11-20T16:19:00.962Z,3.99
2022-11-20T16:21:31.828Z,4.04
2022-11-20T16:24:04.220Z,4.07
2022-11-20T16:26:32.340Z,4.04
2022-11-20T16:29:00.817Z,4.01
2022-11-20T16:31:27.859Z,4.06
2022-11-20T16:33:57.504Z,3.87
2022-11-20T16:36:26.983Z,4.16
2022-11-20T16:38:58.071Z,4.12
2022-11-20T16:41:26.638Z,4.12
2022-11-20T16:43:58.584Z,4.17
2022-11-20T16:46:28.308Z,4.01
2022-11-20T16:49:06.748Z,4.15
2022-11-20T16:51:37.094Z,4.12
2022-11-20T16:54:06.348Z,4.18
2022-11-20T16:56:33.522Z,4.24
2022-11-20T16:59:02.561Z,4.25
2022-11-20T17:01:31.136Z,4.09
2022-11-20T17:04:04.385Z,4.41
2022-11-20T17:06:36.801Z,4.19
2022-11-20T17:09:04.463Z,4.48
2022-11-20T17:11:33.329Z,4.56
2022-11-20T17:14:00.792Z,4.55
2022-11-20T17:16:28.053Z,4.59
2022-11-20T17:19:02.280Z,4.58
2022-11-20T17:21:31.243Z,4.61
2022-11-20T17:24:05.468Z,4.60
2022-11-20T17:26:33.152Z,4.60
2022-11-20T17:29:02.964Z,4.63
2022-11-20T17:31:31.579Z,4.37
2022-11-20T17:34:02.310Z,4.33
2022-11-20T17:36:30.299Z,4.63
2022-11-20T17:38:58.278Z,4.44
2022-11-20T17:41:27.640Z,4.68
2022-11-20T17:43:56.757Z,4.68
2022-11-20T17:46:26.981Z,4.63
2022-11-20T17:48:55.634Z,4.70
2022-11-20T17:51:25.226Z,4.74
2022-11-20T17:53:54.594Z,4.51
2022-11-20T17:56:40.483Z,4.65
2022-11-20T17:59:12.902Z,4.64
2022-11-20T18:01:42.929Z,4.61
2022-11-20T18:04:11.255Z,4.60
2022-11-20T18:06:38.711Z,4.55
2022-11-20T18:09:06.750Z,4.48
2022-11-20T18:11:37.191Z,4.43
2022-11-20T18:14:25.405Z,4.48
2022-11-20T18:16:55.813Z,4.45
2022-11-20T18:19:28.640Z,4.42
2022-11-20T18:22:01.143Z,4.42
2022-11-20T18:24:28.642Z,4.42
2022-11-20T18:26:57.538Z,4.45
2022-11-20T18:29:26.071Z,4.41
2022-11-20T18:31:53.735Z,4.42
2022-11-20T18:34:20.849Z,4.29
2022-11-20T18:36:47.885Z,4.33
2022-11-20T18:39:15.866Z,4.32
2022-11-20T18:42:01.446Z,4.23
2022-11-20T18:44:50.991Z,4.30
2022-11-20T18:47:22.713Z,4.33
2022-11-20T18:49:52.614Z,4.37
2022-11-20T18:52:23.860Z,4.16
2022-11-20T18:54:51.457Z,4.41
2022-11-20T18:57:20.048Z,4.47
2022-11-20T18:59:47.128Z,4.53
2022-11-20T19:02:19.263Z,4.52
2022-11-20T19:04:46.565Z,4.51
2022-11-20T19:07:14.619Z,4.48
2022-11-20T19:09:43.711Z,4.25
2022-11-20T19:12:12.648Z,4.34
2022-11-20T19:14:40.104Z,4.49
2022-11-20T19:17:08.148Z,4.44
2022-11-20T19:19:35.350Z,4.36
2022-11-20T19:22:02.660Z,4.35
2022-11-20T19:24:29.818Z,4.32
2022-11-20T19:26:57.120Z,4.33
2022-11-20T19:29:24.957Z,4.13
2022-11-20T19:31:53.195Z,4.26
2022-11-20T19:34:20.314Z,4.28
2022-11-20T19:36:47.362Z,4.23
2022-11-20T19:39:14.545Z,4.23
2022-11-20T19:41:41.980Z,4.25
2022-11-20T19:44:12.402Z,4.22
2022-11-20T19:46:40.151Z,4.26
2022-11-20T19:49:10.052Z,4.43
2022-11-20T19:51:39.708Z,4.47
2022-11-20T19:54:06.943Z,4.44
2022-11-20T19:56:34.752Z,4.55
2022-11-20T19:59:01.987Z,4.58
2022-11-20T20:01:31.224Z,4.57
2022-11-20T20:04:05.119Z,4.70
2022-11-20T20:06:34.412Z,4.64
2022-11-20T20:09:05.400Z,4.78
2022-11-20T20:11:34.154Z,4.90
2022-11-20T20:14:06.042Z,4.94
2022-11-20T20:16:34.282Z,4.74
2022-11-20T20:19:02.712Z,5.14
2022-11-20T20:21:31.431Z,5.16
2022-11-20T20:23:59.290Z,4.95
2022-11-20T20:26:29.166Z,5.23
2022-11-20T20:28:56.516Z,5.30
2022-11-20T20:31:26.970Z,5.37
2022-11-20T20:33:54.445Z,5.35
2022-11-20T20:36:24.085Z,5.50
2022-11-20T20:38:55.651Z,5.20
2022-11-20T20:41:24.715Z,5.57
2022-11-20T20:44:10.833Z,5.26
2022-11-20T20:46:38.192Z,5.68
2022-11-20T20:49:05.407Z,5.64
2022-11-20T20:51:32.425Z,5.74
2022-11-20T20:53:59.508Z,5.81
2022-11-20T20:56:26.682Z,5.67
2022-11-20T20:58:53.706Z,5.81
2022-11-20T21:01:21.465Z,5.83
2022-11-20T21:03:48.593Z,5.86
2022-11-20T21:06:15.623Z,5.60
2022-11-20T21:08:44.408Z,5.81
2022-11-20T21:11:14.354Z,5.77
2022-11-20T21:13:43.392Z,5.69
2022-11-20T21:16:11.692Z,5.73
2022-11-20T21:18:38.733Z,5.74
2022-11-20T21:21:26.551Z,5.71
2022-11-20T21:23:53.815Z,5.77
2022-11-20T21:26:21.916Z,5.56
2022-11-20T21:28:52.389Z,5.78
2022-11-20T21:31:23.426Z,5.75
2022-11-20T21:33:53.459Z,5.76
2022-11-20T21:36:28.628Z,5.70
2022-11-20T21:38:56.985Z,5.80
2022-11-20T21:41:26.421Z,5.55
2022-11-20T21:44:28.915Z,5.86
2022-11-20T21:46:43.814Z,5.86
2022-11-20T21:49:11.647Z,5.88
2022-11-20T21:51:38.830Z,5.87
2022-11-20T21:54:05.955Z,5.63
2022-11-20T21:56:33.775Z,5.89
2022-11-20T21:59:00.939Z,5.92
2022-11-20T22:01:30.010Z,5.93
2022-11-20T22:04:02.241Z,5.96
2022-11-20T22:06:34.050Z,5.59
2022-11-20T22:09:01.845Z,5.95
2022-11-20T22:11:29.144Z,5.94
2022-11-20T22:14:14.633Z,5.92
2022-11-20T22:16:41.726Z,5.92
2022-11-20T22:19:08.825Z,5.65
2022-11-20T22:21:39.103Z,5.94
2022-11-20T22:24:06.183Z,5.94
2022-11-20T22:26:39.890Z,5.92
2022-11-20T22:29:08.450Z,5.93
2022-11-20T22:31:35.464Z,5.94
2022-11-20T22:34:02.517Z,5.93
2022-11-20T22:36:31.171Z,5.94
2022-11-20T22:38:58.553Z,5.93
2022-11-20T22:41:28.901Z,5.94
2022-11-20T22:43:58.448Z,5.93
2022-11-20T22:46:27.066Z,5.97
2022-11-20T22:48:56.569Z,5.96
2022-11-20T22:51:25.967Z,5.95
2022-11-20T22:53:53.341Z,5.89
2022-11-20T22:56:21.076Z,5.94
2022-11-20T22:58:50.274Z,5.47
2022-11-20T23:01:20.319Z,5.93
2022-11-20T23:03:49.636Z,5.90
2022-11-20T23:06:18.480Z,5.45
2022-11-20T23:08:46.424Z,5.78
2022-11-20T23:11:25.000Z,5.94
2022-11-20T23:13:54.192Z,5.95
2022-11-20T23:16:21.249Z,5.93
2022-11-20T23:18:48.221Z,5.95
2022-11-20T23:21:17.719Z,5.94
2022-11-20T23:23:49.694Z,5.93
2022-11-20T23:26:18.344Z,5.90
2022-11-20T23:28:46.152Z,5.94
2022-11-20T23:31:14.686Z,5.95
2022-11-20T23:33:43.964Z,5.92
2022-11-20T23:36:11.878Z,5.95
2022-11-20T23:38:39.223Z,5.93
2022-11-20T23:41:06.484Z,5.93
2022-11-20T23:43:33.460Z,5.93
2022-11-20T23:46:01.862Z,5.90
2022-11-20T23:48:31.768Z,5.92
2022-11-20T23:50:58.816Z,5.77
2022-11-20T23:53:26.326Z,5.87
2022-11-20T23:55:55.705Z,5.80
2022-11-20T23:58:24.802Z,5.76
